WZZ335 LEBB-LIEO
Flight info
| Callsign | WZZ335 |
|---|---|
| Flight time | N/A |
| Altitude | 36000 |
| Route | PPN M601 CAVES DCT BCN DCT DIPES N725 OSPOK DCT NOLVI DCT ORKUM DCT ELSAG DCT ALG DCT MINKA |
| Aircraft | A320/M-SDE3FGHIRWY/LB1 |
Departure
| Time | N/A |
|---|---|
| Airport | Bilbao Airport (LEBB) |
Arrival
| Time | 2026-04-28 18:29 |
|---|---|
| Airport | Olbia Costa Smeralda Airport (LIEO) |
| Time | Latitude | Longitude | Altitude | Speed | Heading |
|---|---|---|---|---|---|
| 2026-04-28 18:06 | 40.76640 | 8.68499 | 35990 ft | 440 kts | 68° |
| 2026-04-28 18:06 | 40.77792 | 8.72195 | 35852 ft | 430 kts | 68° |
| 2026-04-28 18:07 | 40.78908 | 8.75792 | 35487 ft | 420 kts | 68° |
| 2026-04-28 18:07 | 40.80006 | 8.79343 | 34853 ft | 414 kts | 68° |
| 2026-04-28 18:07 | 40.81083 | 8.82828 | 34226 ft | 408 kts | 67° |
| 2026-04-28 18:07 | 40.82390 | 8.86108 | 33590 ft | 401 kts | 54° |
| 2026-04-28 18:08 | 40.84143 | 8.88949 | 32943 ft | 396 kts | 49° |
| 2026-04-28 18:08 | 40.85939 | 8.91686 | 32296 ft | 392 kts | 49° |
| 2026-04-28 18:08 | 40.87695 | 8.94366 | 31658 ft | 388 kts | 49° |
| 2026-04-28 18:08 | 40.89399 | 8.97098 | 31040 ft | 384 kts | 55° |
| 2026-04-28 18:09 | 40.90919 | 8.99987 | 30401 ft | 380 kts | 55° |
| 2026-04-28 18:09 | 40.92424 | 9.02838 | 29773 ft | 376 kts | 55° |
| 2026-04-28 18:09 | 40.93916 | 9.05659 | 29145 ft | 372 kts | 55° |
| 2026-04-28 18:09 | 40.95392 | 9.08455 | 28510 ft | 369 kts | 55° |
| 2026-04-28 18:10 | 40.96852 | 9.11221 | 27879 ft | 365 kts | 55° |
| 2026-04-28 18:10 | 40.98301 | 9.13961 | 27243 ft | 361 kts | 55° |
| 2026-04-28 18:10 | 40.99730 | 9.16663 | 26614 ft | 357 kts | 55° |
| 2026-04-28 18:10 | 41.01148 | 9.19350 | 25978 ft | 354 kts | 55° |
| 2026-04-28 18:11 | 41.02548 | 9.22006 | 25347 ft | 350 kts | 55° |
| 2026-04-28 18:11 | 41.03935 | 9.24642 | 24732 ft | 347 kts | 55° |
| 2026-04-28 18:11 | 41.05308 | 9.27253 | 24111 ft | 343 kts | 56° |
| 2026-04-28 18:11 | 41.06317 | 9.30066 | 23492 ft | 337 kts | 80° |
| 2026-04-28 18:12 | 41.06250 | 9.33103 | 22905 ft | 331 kts | 109° |
| 2026-04-28 18:12 | 41.05117 | 9.35691 | 22292 ft | 325 kts | 136° |
| 2026-04-28 18:12 | 41.03393 | 9.37617 | 21623 ft | 324 kts | 146° |
| 2026-04-28 18:12 | 41.01479 | 9.39165 | 20974 ft | 321 kts | 159° |
| 2026-04-28 18:13 | 40.99312 | 9.39588 | 20418 ft | 315 kts | 189° |
| 2026-04-28 18:13 | 40.97314 | 9.38548 | 19841 ft | 310 kts | 219° |
| 2026-04-28 18:13 | 40.95892 | 9.36440 | 19209 ft | 308 kts | 234° |
| 2026-04-28 18:13 | 40.94656 | 9.34111 | 18579 ft | 308 kts | 235° |
| 2026-04-28 18:14 | 40.93457 | 9.31816 | 18009 ft | 306 kts | 235° |
| 2026-04-28 18:14 | 40.92253 | 9.29506 | 17462 ft | 304 kts | 235° |
| 2026-04-28 18:14 | 40.91057 | 9.27223 | 16912 ft | 301 kts | 235° |
| 2026-04-28 18:14 | 40.89867 | 9.24957 | 16373 ft | 299 kts | 235° |
| 2026-04-28 18:15 | 40.88683 | 9.22709 | 15812 ft | 296 kts | 235° |
| 2026-04-28 18:15 | 40.87509 | 9.20485 | 15274 ft | 294 kts | 235° |
| 2026-04-28 18:15 | 40.86346 | 9.18281 | 14736 ft | 291 kts | 235° |
| 2026-04-28 18:15 | 40.85194 | 9.16090 | 14201 ft | 289 kts | 235° |
| 2026-04-28 18:16 | 40.84071 | 9.13952 | 13880 ft | 279 kts | 235° |
| 2026-04-28 18:16 | 40.82971 | 9.11869 | 13432 ft | 274 kts | 235° |
| 2026-04-28 18:16 | 40.81882 | 9.09817 | 12969 ft | 272 kts | 235° |
| 2026-04-28 18:16 | 40.80799 | 9.07780 | 12477 ft | 270 kts | 235° |
| 2026-04-28 18:17 | 40.79726 | 9.05764 | 11976 ft | 268 kts | 234° |
| 2026-04-28 18:17 | 40.78660 | 9.03761 | 11508 ft | 266 kts | 234° |
| 2026-04-28 18:17 | 40.77603 | 9.01774 | 11026 ft | 264 kts | 235° |
| 2026-04-28 18:17 | 40.76552 | 8.99795 | 10545 ft | 262 kts | 234° |
| 2026-04-28 18:18 | 40.75270 | 8.98153 | 10068 ft | 258 kts | 206° |
| 2026-04-28 18:18 | 40.73549 | 8.97723 | 9577 ft | 255 kts | 171° |
| 2026-04-28 18:18 | 40.71943 | 8.98633 | 9060 ft | 254 kts | 145° |
| 2026-04-28 18:18 | 40.70984 | 8.99525 | 8685 ft | 256 kts | 145° |
| 2026-04-28 18:19 | 40.69066 | 9.01321 | 8033 ft | 254 kts | 145° |
| 2026-04-28 18:19 | 40.67629 | 9.02668 | 7556 ft | 252 kts | 144° |
| 2026-04-28 18:19 | 40.66476 | 9.04365 | 6959 ft | 254 kts | 112° |
| 2026-04-28 18:19 | 40.66314 | 9.06639 | 6500 ft | 250 kts | 75° |
| 2026-04-28 18:20 | 40.66971 | 9.08371 | 6327 ft | 244 kts | 53° |
| 2026-04-28 18:20 | 40.67959 | 9.10152 | 6173 ft | 237 kts | 55° |
| 2026-04-28 18:20 | 40.68874 | 9.11914 | 6032 ft | 229 kts | 55° |
| 2026-04-28 18:20 | 40.69765 | 9.13610 | 5899 ft | 221 kts | 55° |
| 2026-04-28 18:21 | 40.70629 | 9.15242 | 5801 ft | 211 kts | 55° |
| 2026-04-28 18:21 | 40.71442 | 9.16775 | 5663 ft | 197 kts | 55° |
| 2026-04-28 18:21 | 40.72203 | 9.18213 | 5556 ft | 185 kts | 55° |
| 2026-04-28 18:21 | 40.72917 | 9.19563 | 5452 ft | 174 kts | 55° |
| 2026-04-28 18:22 | 40.73588 | 9.20831 | 5381 ft | 161 kts | 55° |
| 2026-04-28 18:22 | 40.74210 | 9.22008 | 5292 ft | 154 kts | 55° |
| 2026-04-28 18:22 | 40.74820 | 9.23161 | 5203 ft | 153 kts | 55° |
| 2026-04-28 18:22 | 40.75430 | 9.24316 | 5024 ft | 153 kts | 55° |
| 2026-04-28 18:23 | 40.76036 | 9.25463 | 4760 ft | 152 kts | 55° |
| 2026-04-28 18:23 | 40.76639 | 9.26606 | 4647 ft | 151 kts | 56° |
| 2026-04-28 18:23 | 40.77238 | 9.27741 | 4525 ft | 149 kts | 55° |
| 2026-04-28 18:23 | 40.77827 | 9.28856 | 4421 ft | 147 kts | 56° |
| 2026-04-28 18:24 | 40.78406 | 9.29953 | 4242 ft | 145 kts | 56° |
| 2026-04-28 18:24 | 40.78788 | 9.30679 | 4108 ft | 145 kts | 55° |
| 2026-04-28 18:24 | 40.79547 | 9.32118 | 3828 ft | 144 kts | 56° |
| 2026-04-28 18:24 | 40.80119 | 9.33204 | 3618 ft | 143 kts | 56° |
| 2026-04-28 18:25 | 40.80682 | 9.34272 | 3390 ft | 143 kts | 56° |
| 2026-04-28 18:25 | 40.81251 | 9.35354 | 3175 ft | 142 kts | 56° |
| 2026-04-28 18:25 | 40.81817 | 9.36429 | 2955 ft | 142 kts | 56° |
| 2026-04-28 18:26 | 40.82941 | 9.38564 | 2518 ft | 141 kts | 56° |
| 2026-04-28 18:26 | 40.83500 | 9.39628 | 2300 ft | 141 kts | 56° |
| 2026-04-28 18:26 | 40.84059 | 9.40692 | 2076 ft | 141 kts | 56° |
| 2026-04-28 18:26 | 40.84619 | 9.41757 | 1863 ft | 141 kts | 56° |
| 2026-04-28 18:27 | 40.85175 | 9.42816 | 1658 ft | 140 kts | 56° |
| 2026-04-28 18:27 | 40.85726 | 9.43864 | 1456 ft | 138 kts | 57° |
| 2026-04-28 18:27 | 40.86266 | 9.44893 | 1260 ft | 135 kts | 57° |
| 2026-04-28 18:27 | 40.86797 | 9.45892 | 1042 ft | 132 kts | 56° |
| 2026-04-28 18:28 | 40.87317 | 9.46892 | 798 ft | 132 kts | 58° |
| 2026-04-28 18:28 | 40.87831 | 9.47893 | 586 ft | 132 kts | 55° |
| 2026-04-28 18:28 | 40.88368 | 9.48874 | 402 ft | 132 kts | 57° |
| 2026-04-28 18:28 | 40.88877 | 9.49861 | 242 ft | 132 kts | 57° |
| 2026-04-28 18:29 | 40.89405 | 9.50869 | 50 ft | 130 kts | 56° |
| 2026-04-28 18:29 | 40.89873 | 9.51771 | 34 ft | 107 kts | 54° |
| 2026-04-28 18:29 | 40.90202 | 9.52402 | 35 ft | 59 kts | 55° |
| 2026-04-28 18:29 | 40.90360 | 9.52672 | 34 ft | 25 kts | 24° |
| 2026-04-28 18:30 | 40.90451 | 9.52608 | 34 ft | 15 kts | 278° |
| 2026-04-28 18:30 | 40.90454 | 9.52560 | 34 ft | 16 kts | 272° |
| 2026-04-28 18:30 | 40.90377 | 9.52347 | 34 ft | 18 kts | 237° |
| 2026-04-28 18:30 | 40.90300 | 9.52205 | 34 ft | 21 kts | 233° |
| 2026-04-28 18:31 | 40.90213 | 9.52040 | 34 ft | 23 kts | 235° |
| 2026-04-28 18:31 | 40.90189 | 9.51836 | 33 ft | 22 kts | 296° |
| 2026-04-28 18:31 | 40.90194 | 9.51711 | 33 ft | 15 kts | 235° |
| 2026-04-28 18:31 | 40.90132 | 9.51593 | 34 ft | 15 kts | 252° |
| 2026-04-28 18:32 | 40.90154 | 9.51552 | 33 ft | 5 kts | 325° |
| 2026-04-28 18:32 | 40.90179 | 9.51529 | 34 ft | 0 kts | 325° |